Okauchee, WI

2:08 PM CDT on August 23, 2014 (GMT -0500)
Timmerman | Change Station
CLOSE
Current Station
Airport
Location: Milwaukee Timmerman,
Elevation: 745 ft
Nearby Weather Stations

Elev 745 ft 43.11 °N, 88.03 °W | Updated 1 hour ago

Haze
Haze
75 °F
Feels Like 75 °F
N
5
Wind Variable Wind from ESE

Today
High -- | Low -- °F
--% Chance of Precip.
Yesterday
High -- | Low -- °F
Precip. -- in
6:08 AM 7:43 PM
Waning Crescent, 3% visible
Pressure 30.03 in
Visibility 7.0 miles
Clouds Overcast 2400 ft
Dew Point 68 °F
Humidity 78%
Rainfall 0.00 in
Snow Depth Not available.
UV 3 out of 12
Pollen 7.20 out of 12
Air Quality Not available.
Flu Activity Not available.
METAR KMWC 231745Z 11004KT 7SM HZ OVC024 24/20 A3003

More Conditions Fewer Conditions

Pressure 30.03 in
Visibility 7.0 miles
Clouds Overcast 2400 ft
Dew Point 68 °F
Humidity 78%
Rainfall 0.00 in
Snow Depth Not available.
UV 3 out of 12
Pollen 7.20 out of 12
Air Quality Not available.
Flu Activity Not available.
METAR KMWC 231745Z 11004KT 7SM HZ OVC024 24/20 A3003

More Conditions Fewer Conditions

10-Day Weather Forecast

Almanac

Astronomy

Aug. 23, 2014 Rise Set
Actual Time 6:08 AM CDT 7:43 PM CDT
Civil Twilight 5:38 AM CDT 8:13 PM CDT
Nautical Twilight 5:01 AM CDT 8:49 PM CDT
Astronomical Twilight 4:22 AM CDT 9:28 PM CDT
Moon 4:23 AM CDT 6:28 PM CDT
Length of Visible Light 14h 35m
Length of Day
13h 35m
Tomorrow will be 2m 44s shorter.
Waning Crescent, 3% of the Moon is Illuminated
Today
Waning Crescent
Aug 25
New
Sep 2
First Quarter
Sep 8
Full
Sep 15
Last Quarter

Today's Extremes

State Highs State Lows

Community

WunderPhotos

Upload Photos

1,746,580 photos uploaded!

WunderBlogs® & News

Nearby

Snow Depth

Station Depth Elevation
No new snow has been reported.

Earthquake Activity

City Distance Mag. Time & Date
No recent earthquake activity has been reported nearby.
Minimum magnitude displayed is 2.5.

Coastal Water Temperatures

Place Temperature
No Stations Reporting

Nearby Weather Stations